Time;durP1;ratioP1;P1;durP2;ratioP2;P2;SDS_P1;SDS_P2;PMS_P1;PMS_P2;Temp;Humidity;BMP_temperature;BMP_pressure;BME280_temperature;BME280_humidity;BME280_pressure;Samples;Min_cycle;Max_cycle;Signal;HPM_P1;HPM_P2
2022/08/14 00:00:16;;;;;;;4.67;4.07;;;;;;;22.53;56.86;99715.25;5003732;28;20598;-79
2022/08/14 00:02:42;;;;;;;4.87;4.53;;;;;;;22.51;57.51;99707.56;5024403;28;20269;-79
2022/08/14 00:05:10;;;;;;;4.37;3.97;;;;;;;22.53;57.67;99710.00;5042619;28;20270;-80
2022/08/14 00:07:36;;;;;;;9.93;4.13;;;;;;;22.45;58.23;99713.50;5011517;28;20226;-80
2022/08/14 00:10:03;;;;;;;6.13;4.00;;;;;;;22.55;58.39;99708.00;5011590;28;20519;-80
2022/08/14 00:12:31;;;;;;;5.90;4.43;;;;;;;22.30;59.80;99704.66;4984060;28;20702;-79
2022/08/14 00:14:57;;;;;;;6.70;4.23;;;;;;;22.27;60.31;99699.78;5017675;28;20198;-79
2022/08/14 00:17:23;;;;;;;5.03;3.87;;;;;;;22.39;60.25;99695.81;5016374;28;20190;-78
2022/08/14 00:19:48;;;;;;;4.67;4.27;;;;;;;22.35;60.94;99690.06;5011580;28;20175;-78
2022/08/14 00:22:17;;;;;;;4.30;3.90;;;;;;;22.29;61.76;99682.91;5033625;28;20672;-78
2022/08/14 00:24:43;;;;;;;4.90;4.50;;;;;;;22.28;62.57;99686.50;5009898;28;20669;-78
2022/08/14 00:27:08;;;;;;;4.50;4.07;;;;;;;22.34;62.46;99682.38;5011877;28;20189;-78
2022/08/14 00:29:34;;;;;;;4.93;4.30;;;;;;;22.22;63.50;99681.94;5010267;28;20265;-78
2022/08/14 00:31:59;;;;;;;4.60;4.20;;;;;;;22.26;64.00;99680.59;5032945;28;20730;-78
2022/08/14 00:34:24;;;;;;;6.37;4.40;;;;;;;22.22;64.48;99663.59;5011672;28;20237;-78
2022/08/14 00:36:49;;;;;;;5.47;5.00;;;;;;;22.25;64.03;99668.47;5010209;28;20183;-79
2022/08/14 00:39:15;;;;;;;4.93;4.53;;;;;;;22.22;64.41;99674.09;5013479;28;20183;-78
2022/08/14 00:41:41;;;;;;;5.60;5.10;;;;;;;22.15;65.09;99666.06;5031050;28;20408;-76
2022/08/14 00:44:06;;;;;;;5.10;4.60;;;;;;;22.12;65.45;99668.25;5016013;28;20641;-80
2022/08/14 00:46:32;;;;;;;6.17;4.83;;;;;;;22.18;65.47;99667.56;5046746;28;20265;-81
2022/08/14 00:48:57;;;;;;;6.27;5.10;;;;;;;22.14;65.88;99676.72;5024928;28;20179;-81
2022/08/14 00:51:23;;;;;;;8.03;4.50;;;;;;;22.14;66.01;99671.47;5017496;28;20793;-82
2022/08/14 00:53:49;;;;;;;4.40;4.00;;;;;;;22.23;65.34;99663.44;5018908;28;20203;-80
2022/08/14 00:56:17;;;;;;;5.40;4.40;;;;;;;22.10;66.72;99673.63;5000560;28;20187;-81
2022/08/14 00:58:42;;;;;;;5.77;4.67;;;;;;;22.19;66.52;99670.00;5029775;28;20182;-80
2022/08/14 01:01:13;;;;;;;5.13;4.73;;;;;;;22.15;66.55;99675.75;5015006;28;20221;-80
2022/08/14 01:03:39;;;;;;;10.10;5.00;;;;;;;22.00;67.58;99676.44;5020106;28;20181;-79
2022/08/14 01:06:10;;;;;;;5.60;4.50;;;;;;;21.99;67.74;99671.38;5045634;28;20626;-80
2022/08/14 01:08:37;;;;;;;5.87;5.27;;;;;;;21.98;67.82;99664.50;5014690;28;20226;-79
2022/08/14 01:11:04;;;;;;;5.17;4.73;;;;;;;21.98;68.19;99660.09;5029720;28;20309;-79
2022/08/14 01:13:36;;;;;;;7.57;5.20;;;;;;;21.86;68.90;99666.69;5029507;28;20218;-79
2022/08/14 01:16:06;;;;;;;5.50;5.00;;;;;;;21.85;69.04;99663.22;5016697;28;20225;-80
2022/08/14 01:21:34;;;;;;;5.70;5.20;;;;;;;21.69;70.13;99663.28;5023927;28;20236;-80
2022/08/14 01:24:00;;;;;;;5.13;4.73;;;;;;;21.67;70.12;99658.22;5021116;28;20193;-80
2022/08/14 01:26:27;;;;;;;5.37;4.87;;;;;;;21.64;70.61;99645.44;5014046;28;20183;-80
2022/08/14 01:28:54;;;;;;;6.30;5.80;;;;;;;21.64;70.87;99652.50;4999994;28;20619;-80
2022/08/14 01:31:23;;;;;;;6.13;5.37;;;;;;;21.60;70.76;99655.44;5024858;28;20727;-79
2022/08/14 01:33:52;;;;;;;6.20;5.30;;;;;;;21.60;71.22;99646.78;5017475;28;20203;-77
2022/08/14 01:36:22;;;;;;;5.77;5.10;;;;;;;21.59;71.24;99639.91;5012122;28;20214;-79
2022/08/14 01:38:50;;;;;;;5.70;5.20;;;;;;;21.55;71.45;99628.09;5012304;28;20223;-79
2022/08/14 01:41:21;;;;;;;6.23;5.73;;;;;;;21.49;71.77;99626.16;5023080;28;20231;-79
2022/08/14 01:43:47;;;;;;;6.20;5.63;;;;;;;21.46;71.98;99622.06;5025500;28;20548;-79
2022/08/14 01:46:18;;;;;;;5.70;5.20;;;;;;;21.51;72.11;99618.94;5013675;28;20219;-80
2022/08/14 01:48:44;;;;;;;6.67;5.77;;;;;;;21.36;72.57;99616.19;5023820;28;20175;-80
2022/08/14 01:51:15;;;;;;;6.70;5.80;;;;;;;21.34;72.67;99611.13;5021477;28;20221;-79
2022/08/14 01:53:44;;;;;;;6.27;5.67;;;;;;;21.34;72.79;99603.28;5025668;28;20202;-80
2022/08/14 01:56:09;;;;;;;6.20;5.70;;;;;;;21.40;72.17;99596.59;5012057;28;20691;-80
2022/08/14 01:58:35;;;;;;;6.57;6.07;;;;;;;21.33;72.97;99591.19;5007416;28;20258;-80
2022/08/14 02:01:01;;;;;;;6.63;5.93;;;;;;;21.32;73.14;99586.13;5013028;28;20696;-80
2022/08/14 02:03:34;;;;;;;6.43;5.90;;;;;;;21.28;73.21;99583.84;5030352;28;20179;-80
2022/08/14 02:06:01;;;;;;;6.60;6.00;;;;;;;21.17;73.80;99578.94;5012918;28;20190;-80
2022/08/14 02:08:29;;;;;;;8.63;5.77;;;;;;;21.08;74.04;99572.91;5013600;28;20231;-80
2022/08/14 02:13:42;;;;;;;6.03;5.47;;;;;;;20.98;74.36;99558.38;5025567;28;20591;-79
2022/08/14 02:16:11;;;;;;;5.63;5.20;;;;;;;21.05;73.99;99564.56;5026530;28;20179;-80
2022/08/14 02:18:38;;;;;;;6.40;5.80;;;;;;;21.12;73.23;99555.09;5011835;28;20393;-80
2022/08/14 02:21:04;;;;;;;6.80;5.97;;;;;;;21.12;73.02;99561.16;5019563;28;20627;-79
2022/08/14 02:23:31;;;;;;;6.43;5.80;;;;;;;21.14;72.97;99553.13;5028994;28;20175;-80
2022/08/14 02:26:03;;;;;;;7.57;5.97;;;;;;;20.99;73.57;99550.38;5011194;28;20224;-80
2022/08/14 02:28:30;;;;;;;6.43;5.50;;;;;;;21.01;73.66;99552.81;5012991;28;20174;-80
2022/08/14 02:30:57;;;;;;;7.00;6.27;;;;;;;20.93;74.13;99567.53;5017155;28;20275;-80
2022/08/14 02:33:23;;;;;;;7.97;5.63;;;;;;;20.88;74.30;99569.81;5020478;28;20719;-81
2022/08/14 02:35:49;;;;;;;6.00;5.50;;;;;;;20.85;74.65;99567.53;5012604;28;20187;-80
2022/08/14 02:38:15;;;;;;;9.13;6.13;;;;;;;20.82;75.23;99562.63;5012840;28;20274;-80
2022/08/14 02:40:41;;;;;;;6.00;5.40;;;;;;;20.74;75.77;99571.28;5011940;28;20308;-80
2022/08/14 02:43:06;;;;;;;6.43;5.80;;;;;;;20.71;75.86;99562.94;5037107;28;20218;-80
2022/08/14 02:45:32;;;;;;;9.13;6.03;;;;;;;20.68;76.02;99561.47;5012054;28;20297;-80
2022/08/14 02:47:59;;;;;;;7.17;6.10;;;;;;;20.62;76.36;99552.47;5017366;28;20178;-77
2022/08/14 02:50:24;;;;;;;8.40;6.30;;;;;;;20.58;76.66;99552.97;5011390;28;20711;-80
2022/08/14 02:52:50;;;;;;;6.20;5.70;;;;;;;20.45;78.22;99556.03;5038669;28;20191;-80
2022/08/14 02:55:15;;;;;;;6.57;5.87;;;;;;;20.41;78.05;99555.53;5011998;28;20210;-80
2022/08/14 02:57:42;;;;;;;7.47;6.77;;;;;;;20.35;78.98;99550.16;5011963;28;20186;-78
2022/08/14 03:00:12;;;;;;;6.80;6.20;;;;;;;20.15;80.41;99553.84;4992539;28;20222;-79
2022/08/14 03:02:37;;;;;;;6.43;5.90;;;;;;;20.14;81.07;99552.25;5010179;28;20221;-79
2022/08/14 03:05:03;;;;;;;6.47;5.87;;;;;;;20.14;81.14;99547.03;5012005;28;20210;-79
2022/08/14 03:07:29;;;;;;;6.63;6.13;;;;;;;20.13;81.02;99547.16;5012304;28;20234;-78
2022/08/14 03:09:54;;;;;;;6.77;6.17;;;;;;;20.06;81.69;99546.19;5012355;28;20634;-79
2022/08/14 03:12:20;;;;;;;7.53;6.83;;;;;;;20.11;81.97;99549.13;5033763;28;20225;-78
2022/08/14 03:14:50;;;;;;;6.93;6.23;;;;;;;20.11;81.95;99547.31;5017625;28;20580;-79
2022/08/14 03:17:16;;;;;;;7.00;6.37;;;;;;;20.03;82.38;99554.31;5009627;28;20241;-79
2022/08/14 03:19:41;;;;;;;6.90;6.30;;;;;;;20.00;82.78;99553.66;5012275;28;20606;-80
2022/08/14 03:22:07;;;;;;;7.47;6.73;;;;;;;20.04;82.75;99548.94;5020543;28;20620;-80
2022/08/14 03:24:34;;;;;;;7.10;6.40;;;;;;;20.02;82.82;99552.69;5010413;28;20171;-80
2022/08/14 03:27:00;;;;;;;7.53;6.67;;;;;;;20.03;83.08;99544.69;5010913;28;20195;-79
2022/08/14 03:29:27;;;;;;;7.83;6.20;;;;;;;20.12;82.30;99550.78;5012122;28;20182;-79
2022/08/14 03:31:53;;;;;;;7.50;6.90;;;;;;;20.06;83.07;99546.19;4982021;28;20291;-81
2022/08/14 03:34:22;;;;;;;7.90;6.63;;;;;;;20.09;83.21;99540.63;5008608;28;20215;-79
2022/08/14 03:36:53;;;;;;;8.47;7.23;;;;;;;20.12;82.70;99543.75;5011977;28;20225;-80
2022/08/14 03:39:20;;;;;;;7.07;6.47;;;;;;;20.06;82.98;99539.16;5011851;28;20252;-80
2022/08/14 03:41:46;;;;;;;7.43;6.80;;;;;;;20.10;82.94;99537.84;5018061;28;20306;-79
2022/08/14 03:44:11;;;;;;;7.80;6.70;;;;;;;20.11;83.47;99533.47;5015611;28;20178;-79
2022/08/14 03:46:37;;;;;;;7.90;7.10;;;;;;;20.07;83.56;99535.56;5010517;28;20553;-79
2022/08/14 03:49:04;;;;;;;8.03;6.60;;;;;;;20.03;84.19;99530.81;5020563;28;20175;-80
2022/08/14 03:51:31;;;;;;;8.23;7.50;;;;;;;19.99;84.81;99531.16;5015612;28;20291;-79
2022/08/14 03:53:59;;;;;;;7.30;6.60;;;;;;;19.86;85.66;99537.78;5014136;28;20198;-74
2022/08/14 03:56:26;;;;;;;7.60;6.90;;;;;;;19.82;86.16;99532.03;5010093;28;20182;-79
2022/08/14 03:58:58;;;;;;;6.70;6.20;;;;;;;19.96;87.26;99525.44;5011241;28;20191;-63
2022/08/14 04:01:25;;;;;;;8.93;7.30;;;;;;;20.05;85.27;99524.47;5003782;28;20740;-64
2022/08/14 04:03:53;;;;;;;8.20;7.40;;;;;;;20.03;85.11;99530.81;5017732;28;20229;-63
2022/08/14 04:06:22;;;;;;;7.60;7.00;;;;;;;20.07;85.10;99519.91;5009963;28;20617;-62
2022/08/14 04:08:48;;;;;;;6.93;6.40;;;;;;;20.23;84.06;99526.13;5011252;28;20333;-64
2022/08/14 04:11:14;;;;;;;9.03;6.80;;;;;;;20.28;84.66;99521.22;5012868;28;20244;-63
2022/08/14 04:13:41;;;;;;;7.53;6.83;;;;;;;20.37;83.98;99517.66;5013258;28;20238;-63
2022/08/14 04:16:09;;;;;;;7.30;6.70;;;;;;;20.40;83.17;99522.56;5015872;28;20185;-63
2022/08/14 04:18:44;;;;;;;9.13;7.23;;;;;;;20.36;83.10;99516.03;5013867;28;20210;-63
2022/08/14 04:21:10;;;;;;;7.27;6.67;;;;;;;20.40;83.14;99519.94;5010304;28;20217;-63
2022/08/14 04:23:36;;;;;;;8.03;7.33;;;;;;;20.46;82.32;99513.28;5028654;28;20236;-63
2022/08/14 04:26:07;;;;;;;7.67;6.93;;;;;;;20.28;83.49;99506.41;5014390;28;20178;-63
2022/08/14 04:28:35;;;;;;;7.73;7.00;;;;;;;20.52;82.81;99509.22;5019828;28;20178;-62
2022/08/14 04:31:01;;;;;;;7.20;6.60;;;;;;;20.59;81.81;99502.31;5020644;28;20225;-63
2022/08/14 04:33:27;;;;;;;7.57;6.93;;;;;;;20.58;81.89;99506.75;5031119;28;20677;-62
2022/08/14 04:35:53;;;;;;;7.73;7.13;;;;;;;20.40;83.16;99506.88;5012927;28;20260;-62
2022/08/14 04:43:48;;;;;;;8.10;7.47;;;;;;;20.51;82.47;99512.78;5024692;28;20225;-63
2022/08/14 04:46:17;;;;;;;8.33;7.73;;;;;;;20.52;82.93;99515.22;5012977;28;20206;-63
2022/08/14 04:48:43;;;;;;;8.70;8.00;;;;;;;20.53;82.91;99514.25;5023586;28;20200;-63
2022/08/14 04:51:11;;;;;;;8.87;7.30;;;;;;;20.32;83.87;99509.50;5022272;28;20292;-62
2022/08/14 04:53:39;;;;;;;8.37;7.67;;;;;;;20.30;84.46;99512.28;5020107;28;20309;-63
2022/08/14 04:56:05;;;;;;;8.10;7.30;;;;;;;20.50;83.73;99513.75;5013884;28;20200;-63
2022/08/14 04:58:33;;;;;;;7.67;6.97;;;;;;;20.66;82.68;99511.16;5014740;28;20213;-63
2022/08/14 05:00:59;;;;;;;8.40;7.50;;;;;;;20.67;82.36;99509.38;5013760;28;20247;-62
2022/08/14 05:03:30;;;;;;;8.13;7.43;;;;;;;20.75;81.90;99507.59;5021940;28;20645;-63
2022/08/14 05:06:01;;;;;;;8.43;7.73;;;;;;;20.63;82.55;99512.28;5012463;28;20634;-62
2022/08/14 05:08:29;;;;;;;8.10;7.37;;;;;;;20.34;85.00;99509.34;5014375;28;20230;-63
2022/08/14 05:10:56;;;;;;;8.70;8.00;;;;;;;20.56;83.86;99507.88;5019986;28;20320;-64
2022/08/14 05:13:24;;;;;;;9.40;7.53;;;;;;;20.72;83.43;99509.72;5021920;28;20265;-63
2022/08/14 05:15:52;;;;;;;8.57;7.70;;;;;;;20.76;82.52;99511.00;5027782;28;20182;-63
2022/08/14 05:18:19;;;;;;;8.17;7.43;;;;;;;20.77;82.67;99503.00;5013864;28;20838;-62
2022/08/14 05:20:49;;;;;;;8.83;8.13;;;;;;;20.71;83.15;99506.28;5015321;28;20788;-62
2022/08/14 05:23:18;;;;;;;8.60;7.90;;;;;;;20.64;83.78;99503.47;5033581;28;20670;-63
2022/08/14 05:25:46;;;;;;;8.67;7.33;;;;;;;20.62;84.51;99496.78;5011592;28;20179;-62
2022/08/14 05:28:19;;;;;;;9.00;7.97;;;;;;;20.92;82.87;99500.53;5008293;28;20592;-63
2022/08/14 05:30:50;;;;;;;9.73;8.83;;;;;;;20.98;81.91;99491.22;5014732;28;20229;-64
2022/08/14 05:33:17;;;;;;;8.03;7.37;;;;;;;21.00;82.09;99491.03;5022223;28;20206;-64
2022/08/14 05:35:43;;;;;;;8.03;7.33;;;;;;;21.03;82.42;99499.38;5013394;28;20179;-63
2022/08/14 05:38:12;;;;;;;9.47;8.23;;;;;;;21.02;81.88;99495.13;5013738;28;20202;-63
2022/08/14 05:40:39;;;;;;;13.53;11.50;;;;;;;21.06;81.99;99499.06;5012639;28;20343;-63
2022/08/14 05:43:04;;;;;;;10.40;9.13;;;;;;;21.16;81.58;99496.25;5023958;28;20583;-64
2022/08/14 05:45:30;;;;;;;8.50;7.60;;;;;;;21.35;80.89;99491.63;5013091;28;20229;-63
2022/08/14 05:47:55;;;;;;;8.13;7.53;;;;;;;21.57;79.41;99488.28;5019187;28;20648;-63
2022/08/14 05:50:20;;;;;;;7.57;7.07;;;;;;;21.60;79.03;99500.22;5012164;28;20520;-63
2022/08/14 05:52:48;;;;;;;8.20;7.47;;;;;;;21.62;78.79;99497.44;5040389;28;20186;-64
2022/08/14 05:55:14;;;;;;;8.87;8.07;;;;;;;21.70;78.47;99495.59;5011880;28;20646;-64
2022/08/14 05:57:54;;;;;;;9.77;8.33;;;;;;;21.73;78.01;99495.25;5012910;28;20237;-64
2022/08/14 06:00:26;;;;;;;8.00;7.30;;;;;;;21.66;78.60;99490.88;5007201;28;20753;-61
2022/08/14 06:02:52;;;;;;;11.00;8.40;;;;;;;21.67;78.41;99492.50;5011615;28;20265;-63
2022/08/14 06:05:17;;;;;;;8.80;7.97;;;;;;;21.67;79.33;99495.94;5012190;28;20640;-63
2022/08/14 06:07:43;;;;;;;9.33;8.57;;;;;;;21.83;78.21;99496.84;5012147;28;20222;-63
2022/08/14 06:10:09;;;;;;;8.80;8.07;;;;;;;21.90;77.61;99495.97;5004066;28;20646;-63
2022/08/14 06:12:34;;;;;;;8.53;7.77;;;;;;;22.06;76.48;99499.50;5042042;28;20194;-65
2022/08/14 06:15:00;;;;;;;8.83;8.03;;;;;;;22.02;76.78;99500.84;5013747;28;20198;-63
2022/08/14 06:17:25;;;;;;;8.00;7.40;;;;;;;22.09;76.77;99499.97;5011147;28;20664;-64
2022/08/14 06:19:51;;;;;;;9.00;8.00;;;;;;;22.21;75.90;99502.97;5011262;28;20179;-64
2022/08/14 06:22:17;;;;;;;9.33;7.90;;;;;;;22.22;76.01;99498.56;5034729;28;20234;-63
2022/08/14 06:24:42;;;;;;;9.00;8.30;;;;;;;22.32;75.13;99498.34;5011763;28;20189;-63
2022/08/14 06:27:07;;;;;;;14.77;8.90;;;;;;;22.30;75.31;99482.81;5012594;28;20650;-64
2022/08/14 06:29:33;;;;;;;11.50;8.97;;;;;;;22.34;75.36;99493.72;5011279;28;20639;-65
2022/08/14 06:31:59;;;;;;;8.87;7.97;;;;;;;22.32;75.46;99496.53;5020970;28;20241;-78
2022/08/14 06:34:25;;;;;;;9.30;8.50;;;;;;;22.42;74.63;99485.03;5012902;28;20535;-80
2022/08/14 06:36:50;;;;;;;12.90;7.93;;;;;;;22.22;75.43;99483.66;5011169;28;20198;-81
2022/08/14 06:39:15;;;;;;;9.27;8.47;;;;;;;22.38;74.71;99469.66;5012280;28;20305;-82
2022/08/14 06:41:41;;;;;;;8.70;7.80;;;;;;;22.60;73.08;99474.22;5016686;28;20218;-80
2022/08/14 06:44:07;;;;;;;9.10;8.13;;;;;;;22.78;72.01;99464.22;5017063;28;20191;-81
2022/08/14 06:46:33;;;;;;;8.90;8.17;;;;;;;23.10;70.98;99472.75;5011550;28;20178;-81
2022/08/14 06:48:58;;;;;;;8.87;8.07;;;;;;;24.38;64.08;99458.47;5014024;28;20634;-82
2022/08/14 06:51:23;;;;;;;7.93;7.23;;;;;;;25.10;59.62;99459.97;5023711;28;20228;-83
2022/08/14 06:53:49;;;;;;;9.40;7.30;;;;;;;25.24;58.16;99458.25;5022970;28;20210;-83
2022/08/14 06:56:15;;;;;;;7.63;7.00;;;;;;;25.74;56.25;99457.22;5010862;28;20181;-82
2022/08/14 06:58:40;;;;;;;7.07;6.50;;;;;;;26.14;53.59;99453.88;5011072;28;20221;-82
2022/08/14 07:06:33;;;;;;;6.90;6.38;;;;;;;26.85;50.23;99442.69;5012465;28;20256;-83
2022/08/14 07:08:59;;;;;;;6.80;6.22;;;;;;;26.09;53.17;99444.75;5011021;28;20191;-83
2022/08/14 07:11:24;;;;;;;6.72;6.20;;;;;;;26.77;51.56;99447.38;5038827;28;20229;-82
2022/08/14 07:13:49;;;;;;;6.85;6.18;;;;;;;26.56;50.89;99444.75;5016806;28;20300;-82
2022/08/14 07:16:15;;;;;;;6.78;6.18;;;;;;;27.06;49.35;99448.72;5014796;28;20225;-83
2022/08/14 07:18:40;;;;;;;7.35;6.75;;;;;;;27.09;48.97;99445.69;4998300;28;20187;-82
2022/08/14 07:21:07;;;;;;;7.30;6.80;;;;;;;27.48;47.92;99436.00;5028618;28;20213;-82
2022/08/14 07:23:33;;;;;;;6.88;6.38;;;;;;;27.63;47.09;99440.19;5026744;28;20197;-82
2022/08/14 07:26:01;;;;;;;6.75;6.15;;;;;;;28.12;45.71;99438.69;5011148;28;20649;-82
2022/08/14 07:28:33;;;;;;;7.25;6.55;;;;;;;28.96;43.33;99437.50;5012261;28;20306;-82
2022/08/14 07:31:00;;;;;;;7.90;6.50;;;;;;;29.18;41.68;99440.50;4989631;28;20241;-82
2022/08/14 07:33:28;;;;;;;6.72;6.13;;;;;;;29.24;41.98;99436.97;5001224;28;20236;-81
2022/08/14 07:35:55;;;;;;;9.73;6.20;;;;;;;29.39;41.93;99435.81;5011678;28;20325;-82
2022/08/14 07:38:21;;;;;;;7.13;6.43;;;;;;;30.50;38.65;99434.59;5010258;28;20183;-80
2022/08/14 07:40:49;;;;;;;6.80;6.30;;;;;;;29.57;40.09;99440.25;5009844;28;20685;-80
2022/08/14 07:43:15;;;;;;;7.85;5.47;;;;;;;30.39;39.00;99438.81;5020965;28;20817;-80
2022/08/14 07:45:41;;;;;;;6.75;6.25;;;;;;;30.57;38.17;99443.25;5011042;28;20258;-80
2022/08/14 07:48:06;;;;;;;7.38;6.78;;;;;;;29.69;39.93;99442.94;5019662;28;20174;-80
2022/08/14 07:50:32;;;;;;;7.20;6.60;;;;;;;28.58;43.00;99446.41;5016221;28;20331;-80
2022/08/14 07:52:59;;;;;;;5.90;5.38;;;;;;;30.02;39.16;99444.31;5027188;28;20202;-80
2022/08/14 07:55:25;;;;;;;7.57;6.97;;;;;;;29.49;40.79;99451.97;5015340;28;20183;-79
2022/08/14 07:57:51;;;;;;;7.15;6.55;;;;;;;29.83;39.73;99454.97;5015361;28;20629;-79
2022/08/14 08:00:19;;;;;;;7.18;6.47;;;;;;;30.80;37.41;99454.88;5007479;28;20186;-81
2022/08/14 08:02:46;;;;;;;6.53;5.97;;;;;;;31.05;36.83;99465.22;5028486;28;20185;-79
2022/08/14 08:05:13;;;;;;;8.02;6.28;;;;;;;30.27;38.83;99462.69;5015193;28;20253;-80
2022/08/14 08:07:40;;;;;;;7.13;5.82;;;;;;;30.67;37.83;99456.72;5013948;28;20310;-81
2022/08/14 08:10:32;;;;;;;7.03;6.43;;;;;;;31.04;37.07;99459.09;5005180;28;20198;-80
2022/08/14 08:13:11;;;;;;;6.82;6.32;;;;;;;30.37;37.21;99457.63;5039776;28;20745;-81
2022/08/14 08:15:40;;;;;;;7.20;6.28;;;;;;;30.71;37.57;99451.75;5028484;28;20220;-80
2022/08/14 08:18:07;;;;;;;7.10;6.50;;;;;;;30.27;38.13;99457.41;5013795;28;20182;-80
2022/08/14 08:20:36;;;;;;;6.47;5.88;;;;;;;30.65;37.69;99450.84;5010541;28;20225;-81
2022/08/14 08:23:03;;;;;;;6.90;6.40;;;;;;;31.81;35.50;99448.34;5037502;28;20552;-81
2022/08/14 08:25:32;;;;;;;6.45;5.95;;;;;;;31.68;35.25;99441.47;5014599;28;20182;-80
2022/08/14 08:28:01;;;;;;;6.40;5.90;;;;;;;32.75;33.51;99433.56;5015113;28;20221;-79
2022/08/14 08:30:29;;;;;;;6.20;5.70;;;;;;;32.10;33.60;99434.97;5010043;28;20245;-79
2022/08/14 08:32:56;;;;;;;7.97;5.78;;;;;;;32.60;32.90;99431.47;5026339;28;20175;-79
2022/08/14 08:35:24;;;;;;;6.78;6.03;;;;;;;32.31;33.84;99438.78;5012971;28;20537;-79
2022/08/14 08:37:50;;;;;;;8.32;5.53;;;;;;;32.72;32.81;99444.66;5014780;28;20186;-80
2022/08/14 08:40:34;;;;;;;6.43;5.78;;;;;;;32.18;33.19;99437.25;5006778;28;20186;-80
2022/08/14 08:43:00;;;;;;;8.60;5.68;;;;;;;33.63;30.63;99427.34;5025860;28;20190;-80
2022/08/14 08:45:25;;;;;;;5.78;5.28;;;;;;;31.44;33.96;99441.56;5013012;28;20547;-81
2022/08/14 08:47:51;;;;;;;6.68;5.15;;;;;;;33.45;31.54;99436.53;5018508;28;20322;-81
2022/08/14 08:50:22;;;;;;;6.80;5.00;;;;;;;33.41;31.36;99442.59;5011555;28;20646;-80
2022/08/14 08:52:53;;;;;;;6.25;5.65;;;;;;;34.51;29.31;99438.72;5027207;28;20185;-81
2022/08/14 08:55:46;;;;;;;5.13;4.82;;;;;;;34.05;29.49;99430.38;5014017;28;20235;-80
2022/08/14 08:58:18;;;;;;;5.28;4.80;;;;;;;34.28;28.56;99429.19;5013900;28;20187;-80
2022/08/14 09:00:50;;;;;;;5.95;5.22;;;;;;;33.19;29.65;99431.94;5014683;28;20229;-79
2022/08/14 09:03:19;;;;;;;5.82;5.13;;;;;;;34.30;28.90;99429.75;5023210;28;20186;-79
2022/08/14 09:05:48;;;;;;;8.70;4.85;;;;;;;33.73;29.50;99426.63;5013970;28;20190;-79
2022/08/14 09:08:28;;;;;;;5.30;4.90;;;;;;;33.66;29.45;99430.56;5012784;28;20238;-80
2022/08/14 09:10:55;;;;;;;5.13;4.63;;;;;;;33.76;29.26;99420.00;5012888;28;20221;-78
2022/08/14 09:13:24;;;;;;;6.05;5.00;;;;;;;33.42;29.64;99418.34;5032534;28;20254;-80
2022/08/14 09:15:51;;;;;;;5.35;4.55;;;;;;;33.18;29.70;99415.13;5027628;28;20212;-80
2022/08/14 09:18:18;;;;;;;5.10;4.60;;;;;;;33.81;29.01;99409.34;5013508;28;20213;-80
2022/08/14 09:20:47;;;;;;;5.15;4.60;;;;;;;32.19;30.87;99412.25;5015634;28;20236;-80
2022/08/14 09:23:13;;;;;;;4.93;4.53;;;;;;;32.21;31.30;99404.84;5011617;28;20171;-80
2022/08/14 09:25:41;;;;;;;5.60;4.45;;;;;;;32.92;30.13;99401.56;5012251;28;20186;-80
2022/08/14 09:28:08;;;;;;;5.47;4.90;;;;;;;32.63;30.27;99400.91;5012361;28;20768;-79
2022/08/14 09:30:37;;;;;;;5.35;4.95;;;;;;;32.67;30.65;99405.50;5010439;28;20342;-79
2022/08/14 09:33:02;;;;;;;7.38;5.47;;;;;;;33.26;29.80;99400.59;5036442;28;20302;-80
2022/08/14 09:36:00;;;;;;;5.63;5.22;;;;;;;32.91;30.24;99397.28;5011730;28;20277;-79
2022/08/14 09:38:34;;;;;;;4.97;4.57;;;;;;;32.54;30.68;99394.38;5012421;28;20225;-79
2022/08/14 09:41:12;;;;;;;4.63;4.22;;;;;;;32.55;30.19;99383.50;5019125;28;20231;-80
2022/08/14 09:43:59;;;;;;;5.22;4.75;;;;;;;33.02;29.97;99390.22;5026769;28;20218;-78
2022/08/14 09:46:26;;;;;;;5.47;5.00;;;;;;;33.09;29.92;99379.34;5013453;28;20202;-80
2022/08/14 09:48:58;;;;;;;5.85;5.15;;;;;;;35.14;27.13;99383.66;5023562;28;20187;-80
2022/08/14 09:51:26;;;;;;;4.80;4.50;;;;;;;33.74;28.57;99377.56;5016582;28;20652;-79
2022/08/14 09:54:00;;;;;;;5.22;4.82;;;;;;;33.96;29.05;99376.69;5023281;28;20230;-79
2022/08/14 09:56:25;;;;;;;5.05;4.53;;;;;;;34.21;27.96;99385.91;5013914;28;20273;-79
2022/08/14 09:58:51;;;;;;;5.05;4.65;;;;;;;33.72;28.02;99382.34;5013200;28;20193;-79
2022/08/14 10:01:18;;;;;;;5.22;4.82;;;;;;;34.63;27.94;99385.09;5015438;28;20225;-81
2022/08/14 10:03:53;;;;;;;5.78;5.20;;;;;;;36.20;25.64;99372.47;5036530;28;20190;-79
2022/08/14 10:06:22;;;;;;;7.78;5.45;;;;;;;37.01;24.07;99374.31;5010165;28;20589;-80
2022/08/14 10:08:50;;;;;;;5.28;4.43;;;;;;;34.46;27.42;99371.13;5011774;28;20237;-80
2022/08/14 10:11:26;;;;;;;5.50;4.70;;;;;;;33.72;28.01;99363.69;5022469;28;20225;-79
2022/08/14 10:13:54;;;;;;;4.43;4.05;;;;;;;34.75;26.45;99358.97;5022793;28;20214;-80
2022/08/14 10:16:25;;;;;;;5.18;4.53;;;;;;;36.26;24.59;99351.81;5018875;28;20618;-80
2022/08/14 10:19:07;;;;;;;4.97;4.55;;;;;;;36.15;24.38;99356.41;5011921;28;20724;-82
2022/08/14 10:21:34;;;;;;;4.82;4.43;;;;;;;35.48;24.66;99357.28;5027673;28;20220;-81
2022/08/14 10:23:59;;;;;;;5.35;4.00;;;;;;;33.89;26.62;99357.44;5020455;28;20194;-81
2022/08/14 10:26:24;;;;;;;4.93;3.53;;;;;;;35.45;25.56;99349.81;5011924;28;20261;-81
2022/08/14 10:28:51;;;;;;;3.85;3.55;;;;;;;36.70;22.78;99347.66;5012962;28;20321;-81
2022/08/14 10:31:28;;;;;;;6.85;3.83;;;;;;;35.58;23.46;99358.34;5022926;28;20236;-80
2022/08/14 10:33:59;;;;;;;3.50;3.30;;;;;;;37.22;22.10;99356.22;5016203;28;20194;-79
2022/08/14 10:36:33;;;;;;;4.75;3.95;;;;;;;35.91;23.44;99359.69;5012841;28;20179;-82
2022/08/14 10:39:02;;;;;;;3.95;3.60;;;;;;;36.71;22.65;99344.69;5011640;28;20269;-81
2022/08/14 10:41:38;;;;;;;4.40;3.83;;;;;;;37.11;22.80;99352.81;5016101;28;20236;-81
2022/08/14 10:44:07;;;;;;;4.40;4.10;;;;;;;37.65;22.07;99353.75;5014164;28;20634;-82
2022/08/14 10:47:06;;;;;;;3.58;3.20;;;;;;;33.90;26.02;99348.38;5012852;28;20225;-81
2022/08/14 10:49:33;;;;;;;3.75;3.45;;;;;;;33.71;26.29;99334.63;5022894;28;20197;-80
2022/08/14 10:52:06;;;;;;;5.53;3.85;;;;;;;32.90;26.96;99325.63;5019999;28;20224;-80
2022/08/14 10:54:38;;;;;;;4.05;3.75;;;;;;;31.98;28.16;99326.81;5012169;28;20658;-80
2022/08/14 10:57:23;;;;;;;5.57;3.70;;;;;;;31.13;29.48;99316.13;5011081;28;20179;-81
2022/08/14 10:59:56;;;;;;;4.32;3.95;;;;;;;30.62;30.01;99315.16;5012460;28;20187;-81
2022/08/14 11:02:28;;;;;;;7.05;4.20;;;;;;;30.46;30.81;99298.88;4991574;28;20226;-80
2022/08/14 11:04:57;;;;;;;4.40;3.92;;;;;;;29.74;31.30;99282.22;5011952;28;20183;-80
2022/08/14 11:07:23;;;;;;;6.80;4.30;;;;;;;30.20;32.36;99273.69;5010641;28;20293;-80
2022/08/14 11:09:55;;;;;;;4.22;3.80;;;;;;;30.37;30.52;99281.75;5012103;28;20194;-80
2022/08/14 11:12:20;;;;;;;7.85;4.57;;;;;;;30.02;31.14;99280.75;5034227;28;20221;-81
2022/08/14 11:14:51;;;;;;;4.75;4.25;;;;;;;29.87;30.95;99273.25;5009861;28;20206;-82
2022/08/14 11:17:16;;;;;;;4.82;4.35;;;;;;;29.99;31.95;99267.94;5034517;28;20225;-82
2022/08/14 11:19:43;;;;;;;4.82;4.30;;;;;;;30.21;31.09;99264.69;5010846;28;20232;-82
2022/08/14 11:22:10;;;;;;;5.20;4.28;;;;;;;29.89;30.70;99263.22;5032335;28;20221;-81
2022/08/14 11:24:39;;;;;;;4.95;4.45;;;;;;;29.74;30.74;99254.91;5010570;28;20269;-81
2022/08/14 11:27:06;;;;;;;5.80;4.50;;;;;;;29.89;30.44;99247.31;5010949;28;20564;-81
2022/08/14 11:29:31;;;;;;;4.97;3.42;;;;;;;29.65;28.75;99254.44;5012087;28;20555;-81
2022/08/14 11:31:58;;;;;;;4.03;3.17;;;;;;;29.87;29.41;99253.84;4985043;28;20225;-78
2022/08/14 11:34:23;;;;;;;4.43;3.13;;;;;;;30.41;28.97;99251.84;5013840;28;20207;-83
2022/08/14 11:36:48;;;;;;;6.53;3.97;;;;;;;30.57;28.13;99242.34;5010755;28;20201;-81
2022/08/14 11:39:21;;;;;;;4.03;3.67;;;;;;;30.72;27.11;99246.34;5043998;28;20190;-81
2022/08/14 11:41:47;;;;;;;4.43;3.35;;;;;;;30.73;27.24;99246.09;5023861;28;20708;-82
2022/08/14 11:44:12;;;;;;;3.20;3.00;;;;;;;30.27;27.12;99239.91;5003776;28;20245;-80
2022/08/14 11:46:39;;;;;;;3.60;3.30;;;;;;;30.30;27.14;99231.44;5026777;28;20277;-82
2022/08/14 11:49:05;;;;;;;5.28;3.50;;;;;;;30.52;27.42;99230.84;5015652;28;20634;-81
2022/08/14 11:51:31;;;;;;;3.58;3.10;;;;;;;30.68;27.06;99238.06;5031731;28;20244;-81
2022/08/14 11:54:05;;;;;;;4.00;3.28;;;;;;;31.01;27.14;99233.84;5019827;28;21063;-81